Latest Coastal Weather Observations for Orbost

IDV60701

Issued at 6:31 pm EDT Friday 6 March 2015 (issued every 10 minutes, with the page automatically refreshed every 10 minutes)

About coastal observations | Map of coastal stations | Coastal observations for VIC | Marine services | Other Formats
Station Details ID: 084145 Name: ORBOST Lat: -37.69 Lon: 148.47 Height: 62.65 m
Data from the previous 72 hours. | See also: Recent months at Orbost
Date/Time
EDT
Temp

°C
Wind Pressure Rain
since 9am
mm
Weather Cloud Vis
km
Sea
Height
m
Swell
Dir
 
Speed
knots
Gust
knots
hPa Trend Height
m
Period
s
Dir
06/06:30pm 18.0 SW 11 18 1008.8 - 0.0 - - - - - - -
06/06:00pm 19.2 SW 12 17 1008.1 - 0.0 - - - - - - -
06/05:30pm 18.4 SW 14 20 1007.6 - 0.0 - - - - - - -
06/05:00pm 19.5 SW 12 18 1007.2 - 0.0 - - - - - - -
06/04:30pm 19.8 SW 13 22 1007.0 - 0.0 - - - - - - -
06/04:00pm 18.9 SW 14 19 1006.7 - 0.0 - - - - - - -
06/03:30pm 22.2 WSW 16 28 1006.2 - 0.0 - - - - - - -
06/03:00pm 21.9 WSW 15 26 1006.1 - 0.0 - - - - - - -
06/02:59pm 22.0 WSW 15 26 1006.1 - 0.0 - - - - - - -
06/02:30pm 21.4 WSW 14 24 1006.2 - 0.0 - - - - - - -
06/02:00pm 21.2 W 19 33 1005.9 - 0.0 - - - - - - -
06/01:47pm 21.1 WSW 15 27 1005.9 - 0.0 - - - - - - -
06/01:30pm 20.6 W 16 25 1006.1 - 0.0 - - - - - - -
06/01:20pm 20.4 W 14 25 1006.1 - 0.0 - - - - - - -
06/01:00pm 19.8 WNW 11 19 1006.1 - 0.0 - - - - - - -
06/12:30pm 19.1 W 12 18 1006.1 - 0.0 - - - - - - -
06/12:00pm 19.2 W 12 20 1006.0 - 0.0 - - - - - - -
06/11:30am 19.1 W 11 23 1006.0 - 0.0 - - - - - - -
06/11:00am 19.3 W 14 21 1005.7 - 0.0 - - - - - - -
06/10:30am 19.1 WNW 12 29 1005.6 - 0.0 - - - - - - -
06/10:00am 18.1 WNW 11 19 1005.8 - 0.0 - - - - - - -
06/09:30am 17.9 WNW 14 26 1005.8 - 0.0 - - - - - - -
06/09:00am 17.2 WNW 10 19 1005.8 - 0.6 - - - - - - -
06/08:30am 16.7 WNW 9 13 1005.7 - 0.6 - - - - - - -
06/08:00am 14.2 NW 6 9 1005.5 - 0.6 - - - - - - -
06/07:30am 12.9 NNW 5 7 1005.9 - 0.6 - - - - - - -
06/07:00am 12.4 NNW 6 11 1005.3 - 0.6 - - - - - - -
06/06:30am 13.5 NW 6 9 1005.4 - 0.6 - - - - - - -
06/06:00am 13.7 NW 7 11 1005.4 - 0.6 - - - - - - -
06/05:30am 13.5 WNW 6 10 1006.1 - 0.6 - - - - - - -
06/05:00am 13.0 NW 5 9 1006.0 - 0.6 - - - - - - -
06/04:30am 12.5 NW 4 7 1006.3 - 0.6 - - - - - - -
06/04:00am 12.9 NW 6 10 1006.9 - 0.6 - - - - - - -
06/03:30am 12.7 NW 5 8 1007.4 - 0.6 - - - - - - -
06/03:00am 13.1 WNW 7 11 1007.7 - 0.6 - - - - - - -
06/02:30am 12.1 NW 5 8 1008.0 - 0.6 - - - - - - -
06/02:00am 11.9 NNW 5 6 1008.6 - 0.6 - - - - - - -
06/01:30am 11.7 NW 3 4 1009.1 - 0.6 - - - - - - -
06/01:00am 11.6 WNW 3 5 1009.7 - 0.6 - - - - - - -
06/12:30am 12.8 WNW 6 10 1009.8 - 0.6 - - - - - - -
06/12:00am 12.5 WNW 6 9 1010.3 - 0.6 - - - - - - -
 
Date/Time
EDT
Temp

°C
Wind Pressure Rain
since 9am
mm
Weather Cloud Vis
km
Sea
Height
m
Swell
Dir
 
Speed
knots
Gust
knots
hPa Trend Height
m
Period
s
Dir
05/11:30pm 12.8 WNW 7 10 1010.8 - 0.6 - - - - - - -
05/11:00pm 12.6 WNW 6 9 1011.2 - 0.6 - - - - - - -
05/10:30pm 13.0 WNW 5 8 1011.5 - 0.6 - - - - - - -
05/10:00pm 13.2 NW 5 8 1011.8 - 0.6 - - - - - - -
05/09:30pm 13.5 W 4 7 1012.1 - 0.6 - - - - - - -
05/09:00pm 13.8 W 6 10 1012.1 - 0.6 - - - - - - -
05/08:30pm 14.0 W 5 9 1012.0 - 0.6 - - - - - - -
05/08:00pm 14.7 WSW 8 15 1011.9 - 0.6 - - - - - - -
05/07:30pm 15.6 W 9 14 1012.0 - 0.6 - - - - - - -
05/07:00pm 16.5 WSW 10 18 1012.2 - 0.6 - - - - - - -
05/06:30pm 17.0 SW 9 15 1012.2 - 0.6 - - - - - - -
05/06:00pm 16.6 SW 12 17 1012.2 - 0.6 - - - - - - -
05/05:30pm 16.9 SW 12 18 1012.3 - 0.6 - - - - - - -
05/05:00pm 17.2 SW 11 17 1012.2 - 0.6 - - - - - - -
05/04:30pm 18.2 SW 11 18 1012.4 - 0.6 - - - - - - -
05/04:00pm 18.3 WSW 12 17 1012.7 - 0.6 - - - - - - -
05/03:30pm 16.3 SW 17 28 1013.2 - 0.6 - - - - - - -
05/03:25pm 16.8 SW 16 28 1013.2 - 0.6 - - - - - - -
05/03:00pm 18.1 WSW 11 18 1013.2 - 0.6 - - - - - - -
05/02:30pm 16.6 WSW 14 21 1013.2 - 0.6 - - - - - - -
05/02:00pm 16.5 WSW 12 19 1013.5 - 0.6 - - - - - - -
05/01:30pm 16.6 WSW 16 26 1013.9 - 0.6 - - - - - - -
05/01:19pm 15.2 WSW 14 26 1014.0 - 0.6 - - - - - - -
05/01:00pm 14.7 W 16 27 1014.5 - 0.6 - - - - - - -
05/12:39pm 14.8 WSW 16 27 1014.2 - 0.6 - - - - - - -
05/12:30pm 13.4 WSW 13 19 1014.4 - 0.6 - - - - - - -
05/12:11pm 11.7 WSW 17 29 1014.9 - 0.2 - - - - - - -
05/12:00pm 15.5 WSW 17 24 1014.0 - 0.0 - - - - - - -
05/11:30am 16.1 W 19 31 1013.3 - 0.0 - - - - - - -
05/11:05am 15.6 W 17 28 1013.2 - 0.0 - - - - - - -
05/11:00am 15.1 W 18 28 1012.9 - 0.0 - - - - - - -
05/10:31am 15.3 W 17 27 1012.6 - 0.0 - - - - - - -
05/10:30am 15.8 W 16 25 1012.7 - 0.0 - - - - - - -
05/10:00am 14.3 W 15 28 1012.6 - 0.0 - - - - - - -
05/09:56am 14.5 W 16 28 1012.5 - 0.0 - - - - - - -
05/09:30am 14.4 W 17 24 1012.2 - 0.0 - - - - - - -
05/09:03am 13.9 W 15 26 1011.7 - 0.0 - - - - - - -
05/09:00am 14.0 W 14 23 1011.7 - 1.0 - - - - - - -
05/08:30am 13.5 W 16 28 1011.8 - 1.0 - - - - - - -
05/08:00am 13.1 W 18 28 1011.2 - 1.0 - - - - - - -
05/07:30am 12.8 W 18 29 1010.2 - 1.0 - - - - - - -
05/07:00am 12.9 WSW 20 38 1008.9 - 1.0 - - - - - - -
05/06:30am 12.0 W 18 31 1008.3 - 1.0 - - - - - - -
05/06:00am 12.6 W 22 33 1007.4 - 0.4 Rain - - - - - -
05/05:48am 14.3 WSW 17 42 1006.9 - 0.0 - - - - - - -
05/05:43am 14.8 WSW 11 28 1006.4 - 0.0 - - - - - - -
05/05:30am 13.9 W 5 10 1005.6 - 0.0 - - - - - - -
05/05:00am 13.6 NW 3 5 1004.5 - 0.0 - - - - - - -
05/04:30am 12.6 NNW 5 6 1004.4 - 0.0 - - - - - - -
05/04:00am 13.4 N 4 5 1004.6 - 0.0 - - - - - - -
05/03:30am 12.6 N 3 5 1004.9 - 0.0 - - - - - - -
05/03:00am 12.7 N 4 5 1005.1 - 0.0 - - - - - - -
05/02:30am 10.8 NW 2 3 1005.5 - 0.0 - - - - - - -
05/02:00am 12.1 CALM 0 1 1005.6 - 0.0 - - - - - - -
05/01:30am 12.7 NNE 4 5 1006.1 - 0.0 - - - - - - -
05/01:00am 12.9 N 4 5 1006.6 - 0.0 - - - - - - -
05/12:30am 12.4 N 2 3 1007.0 - 0.0 - - - - - - -
05/12:00am 12.1 CALM 0 2 1007.3 - 0.0 - - - - - - -
 
Date/Time
EDT
Temp

°C
Wind Pressure Rain
since 9am
mm
Weather Cloud Vis
km
Sea
Height
m
Swell
Dir
 
Speed
knots
Gust
knots
hPa Trend Height
m
Period
s
Dir
04/11:30pm 13.1 CALM 0 0 1007.7 - 0.0 - - - - - - -
04/11:00pm 13.9 ENE 3 4 1007.9 - 0.0 - - - - - - -
04/10:30pm 14.2 NE 4 5 1008.5 - 0.0 - - - - - - -
04/10:00pm 14.6 NE 4 5 1009.1 - 0.0 - - - - - - -
04/09:30pm 14.3 NE 3 5 1009.5 - 0.0 - - - - - - -
04/09:00pm 14.9 ENE 2 3 1009.7 - 0.0 - - - - - - -
04/08:30pm 15.6 E 2 2 1009.7 - 0.0 - - - - - - -
04/08:00pm 16.6 ESE 2 4 1009.7 - 0.0 - - - - - - -
04/07:30pm 17.5 SE 3 5 1009.6 - 0.0 - - - - - - -
04/07:00pm 18.9 SSE 4 8 1009.4 - 0.0 - - - - - - -
04/06:30pm 20.0 SSE 4 6 1009.2 - 0.0 - - - - - - -
04/06:00pm 20.4 SSE 3 6 1009.1 - 0.0 - - - - - - -
04/05:30pm 20.4 SSE 4 6 1009.1 - 0.0 - - - - - - -
04/05:00pm 20.4 SSE 4 8 1009.3 - 0.0 - - - - - - -
04/04:30pm 20.6 SE 4 7 1009.5 - 0.0 - - - - - - -
04/04:00pm 20.7 SE 5 10 1009.7 - 0.0 - - - - - - -
04/03:30pm 20.6 SE 5 10 1010.1 - 0.0 - - - - - - -
04/03:00pm 20.6 SE 4 8 1010.5 - 0.0 - - - - - - -
04/02:30pm 20.1 S 6 10 1011.2 - 0.0 - - - - - - -
04/02:00pm 20.0 S 7 13 1011.8 - 0.0 - - - - - - -
04/01:30pm 20.6 S 7 12 1012.0 - 0.0 - - - - - - -
04/01:00pm 20.5 S 7 11 1012.2 - 0.0 - - - - - - -
04/12:30pm 20.9 S 7 10 1012.4 - 0.0 - - - - - - -
04/12:00pm 21.6 SSW 3 7 1012.9 - 0.0 - - - - - - -
04/11:30am 20.8 W 4 7 1013.3 - 0.0 - - - - - - -
04/11:00am 20.5 WSW 3 5 1013.8 - 0.0 - - - - - - -
04/10:30am 19.5 WNW 3 6 1014.2 - 0.0 - - - - - - -
04/10:00am 18.7 W 3 5 1014.4 - 0.0 - - - - - - -
04/09:30am 17.7 WNW 3 5 1014.5 - 0.0 - - - - - - -
04/09:00am 16.7 NW 3 4 1014.8 - 0.0 - - - - - - -
04/08:30am 15.1 NW 2 3 1015.0 - 0.0 - - - - - - -
04/08:00am 14.7 NNW 2 2 1014.7 - 0.0 - - - - - - -
04/07:30am 14.3 NNW 2 2 1014.4 - 0.0 - - - - - - -
04/07:00am 13.9 N 3 4 1014.1 - 0.0 - - - - - - -
04/06:30am 13.5 CALM 0 0 1013.9 - 0.0 - - - - - - -
04/06:00am 13.5 CALM 0 1 1013.7 - 0.0 - - - - - - -
04/05:30am 13.6 N 2 2 1013.5 - 0.0 - - - - - - -
04/05:00am 13.5 N 2 3 1013.3 - 0.0 - - - - - - -
04/04:30am 13.3 N 2 2 1013.3 - 0.0 - - - - - - -
04/04:00am 13.7 N 1 2 1013.3 - 0.0 - - - - - - -
04/03:30am 14.1 NNW 1 2 1013.6 - 0.0 - - - - - - -
04/03:00am 14.2 NW 1 1 1014.0 - 0.0 - - - - - - -
04/02:30am 14.8 CALM 0 0 1014.3 - 0.0 - - - - - - -
04/02:00am 14.9 N 1 2 1014.6 - 0.0 - - - - - - -
04/01:30am 15.2 N 2 3 1015.0 - 0.0 - - - - - - -
04/01:00am 15.2 N 2 2 1015.3 - 0.0 - - - - - - -
04/12:30am 14.7 NNW 1 2 1015.5 - 0.0 - - - - - - -
04/12:00am 14.7 CALM 0 1 1015.7 - 0.0 - - - - - - -
 
Date/Time
EDT
Temp

°C
Wind Pressure Rain
since 9am
mm
Weather Cloud Vis
km
Sea
Height
m
Swell
Dir
 
Speed
knots
Gust
knots
hPa Trend Height
m
Period
s
Dir
03/11:30pm 15.0 N 2 2 1015.9 - 0.0 - - - - - - -
03/11:00pm 15.1 N 1 2 1016.0 - 0.0 - - - - - - -
03/10:30pm 14.9 CALM 0 1 1016.2 - 0.0 - - - - - - -
03/10:00pm 14.1 N 1 3 1016.1 - 0.0 - - - - - - -
03/09:30pm 14.5 CALM 0 0 1016.3 - 0.0 - - - - - - -
03/09:00pm 15.4 E 1 1 1016.1 - 0.0 - - - - - - -
03/08:30pm 16.0 SE 1 2 1015.8 - 0.0 - - - - - - -
03/08:00pm 16.5 SE 1 3 1015.5 - 0.0 - - - - - - -
03/07:30pm 17.5 SE 2 4 1015.0 - 0.0 - - - - - - -
03/07:00pm 18.5 SE 3 5 1015.1 - 0.0 - - - - - - -

Other Formats:

Comma delimited format used in spreadsheet applications
http://www.bom.gov.au/fwo/IDV60701/IDV60701.95918.axf

JavaScript Object Notation format (JSON) in row-major order
http://www.bom.gov.au/fwo/IDV60701/IDV60701.95918.json